createdAt,value
2018-05-29T00:00:36.875Z,36.07
2018-05-29T00:03:05.880Z,33.90
2018-05-29T00:05:34.812Z,41.93
2018-05-29T00:08:04.299Z,37.67
2018-05-29T00:10:33.243Z,40.67
2018-05-29T00:13:02.635Z,39.17
2018-05-29T00:15:34.963Z,37.60
2018-05-29T00:18:03.925Z,34.50
2018-05-29T00:20:32.898Z,42.13
2018-05-29T00:23:03.338Z,30.00
2018-05-29T00:25:32.815Z,35.30
2018-05-29T00:28:04.384Z,35.67
2018-05-29T00:30:33.335Z,32.10
2018-05-29T00:33:02.319Z,32.03
2018-05-29T00:35:31.263Z,36.57
2018-05-29T00:38:00.233Z,34.07
2018-05-29T00:40:31.709Z,34.63
2018-05-29T00:43:01.126Z,34.10
2018-05-29T00:45:30.082Z,34.60
2018-05-29T00:47:59.946Z,43.50
2018-05-29T00:50:29.868Z,32.07
2018-05-29T00:52:58.852Z,33.90
2018-05-29T00:55:39.151Z,35.03
2018-05-29T00:58:08.540Z,34.93
2018-05-29T01:00:40.195Z,36.57
2018-05-29T01:03:10.128Z,36.80
2018-05-29T01:05:39.671Z,33.90
2018-05-29T01:08:10.481Z,36.87
2018-05-29T01:10:39.424Z,32.60
2018-05-29T01:13:08.411Z,36.40
2018-05-29T01:15:37.386Z,33.47
2018-05-29T01:18:09.705Z,34.70
2018-05-29T01:20:39.751Z,34.97
2018-05-29T01:23:08.750Z,33.63
2018-05-29T01:25:37.699Z,37.33
2018-05-29T01:28:06.675Z,38.97
2018-05-29T01:30:35.639Z,36.07
2018-05-29T01:33:04.618Z,39.90
2018-05-29T01:35:34.400Z,32.60
2018-05-29T01:38:03.416Z,30.17
2018-05-29T01:40:33.452Z,35.57
2018-05-29T01:43:03.915Z,39.37
2018-05-29T01:45:32.874Z,33.73
2018-05-29T01:48:01.868Z,36.63
2018-05-29T01:50:31.679Z,33.37
2018-05-29T01:53:01.416Z,34.10
2018-05-29T01:55:32.397Z,31.23
2018-05-29T01:58:01.365Z,32.30
2018-05-29T02:00:31.388Z,34.13
2018-05-29T02:03:00.749Z,33.03
2018-05-29T02:05:29.716Z,40.43
2018-05-29T02:07:58.694Z,39.63
2018-05-29T02:10:27.653Z,29.60
2018-05-29T02:12:56.638Z,38.33
2018-05-29T02:15:25.594Z,31.63
2018-05-29T02:17:54.575Z,28.97
2018-05-29T02:20:24.269Z,33.60
2018-05-29T02:22:54.510Z,36.93
2018-05-29T02:25:24.459Z,33.00
2018-05-29T02:27:56.672Z,35.23
2018-05-29T02:30:27.422Z,40.40
2018-05-29T02:32:58.385Z,34.43
2018-05-29T02:35:27.324Z,39.53
2018-05-29T02:37:56.314Z,37.00
2018-05-29T02:40:26.471Z,35.47
2018-05-29T02:42:55.450Z,39.87
2018-05-29T02:45:26.217Z,38.90
2018-05-29T02:47:56.055Z,34.80
2018-05-29T02:50:25.026Z,34.33
2018-05-29T02:52:54.807Z,32.30
2018-05-29T02:55:24.415Z,31.73
2018-05-29T02:57:53.380Z,34.50
2018-05-29T03:00:22.351Z,33.43
2018-05-29T03:02:51.335Z,33.30
2018-05-29T03:05:22.540Z,39.13
2018-05-29T03:07:52.166Z,39.27
2018-05-29T03:10:22.033Z,34.00
2018-05-29T03:12:51.010Z,35.57
2018-05-29T03:15:19.969Z,35.20
2018-05-29T03:17:48.959Z,39.57
2018-05-29T03:20:19.331Z,30.80
2018-05-29T03:22:48.797Z,32.33
2018-05-29T03:25:17.765Z,35.60
2018-05-29T03:27:46.743Z,35.03
2018-05-29T03:30:16.166Z,36.13
2018-05-29T03:32:45.140Z,32.63
2018-05-29T03:35:14.102Z,37.23
2018-05-29T03:37:43.068Z,36.00
2018-05-29T03:40:13.552Z,38.23
2018-05-29T03:42:42.523Z,37.27
2018-05-29T03:45:11.965Z,38.80
2018-05-29T03:47:42.008Z,35.60
2018-05-29T03:50:10.969Z,43.73
2018-05-29T03:52:39.946Z,45.90
2018-05-29T03:55:08.906Z,36.55
2018-05-29T03:57:37.901Z,34.50
2018-05-29T04:00:06.855Z,34.43
2018-05-29T04:02:35.826Z,40.00
2018-05-29T04:05:04.801Z,35.10
2018-05-29T04:07:34.618Z,33.13
2018-05-29T04:10:04.736Z,42.30
2018-05-29T04:12:35.231Z,35.40
2018-05-29T04:15:05.045Z,36.07
2018-05-29T04:17:34.919Z,36.63
2018-05-29T04:20:04.728Z,41.03
2018-05-29T04:22:33.694Z,34.70
2018-05-29T04:25:02.650Z,34.47
2018-05-29T04:27:31.630Z,38.83
2018-05-29T04:30:00.589Z,63.10
2018-05-29T04:32:30.003Z,39.20
2018-05-29T04:34:58.977Z,37.37
2018-05-29T04:37:27.943Z,37.37
2018-05-29T04:39:57.643Z,38.53
2018-05-29T04:42:26.622Z,35.27
2018-05-29T04:44:55.591Z,35.53
2018-05-29T04:47:24.575Z,44.63
2018-05-29T04:49:53.534Z,43.23
2018-05-29T04:52:22.510Z,37.17
2018-05-29T04:54:51.503Z,35.90
2018-05-29T04:57:20.482Z,43.50
2018-05-29T04:59:49.462Z,37.23
2018-05-29T05:02:18.418Z,41.33
2018-05-29T05:04:47.384Z,38.03
2018-05-29T05:07:16.366Z,37.50
2018-05-29T05:09:45.355Z,39.47
2018-05-29T05:12:15.626Z,35.07
2018-05-29T05:14:44.603Z,35.40
2018-05-29T05:17:13.549Z,36.80
2018-05-29T05:19:42.525Z,36.10
2018-05-29T05:22:11.472Z,36.70
2018-05-29T05:24:41.848Z,37.63
2018-05-29T05:27:10.801Z,37.63
2018-05-29T05:29:39.772Z,38.67
2018-05-29T05:32:09.171Z,35.07
2018-05-29T05:34:39.531Z,43.60
2018-05-29T05:37:08.476Z,37.40
2018-05-29T05:39:37.462Z,41.83
2018-05-29T05:42:07.517Z,39.40
2018-05-29T05:44:36.500Z,36.43
2018-05-29T05:47:05.474Z,40.00
2018-05-29T05:49:34.459Z,42.50
2018-05-29T05:52:06.095Z,50.93
2018-05-29T05:54:38.424Z,39.87
2018-05-29T05:57:08.580Z,40.43
2018-05-29T05:59:37.558Z,46.67
2018-05-29T06:02:07.209Z,43.63
2018-05-29T06:04:37.773Z,41.13
2018-05-29T06:07:06.730Z,39.93
2018-05-29T06:09:35.726Z,40.33
2018-05-29T06:12:05.811Z,47.43
2018-05-29T06:14:34.782Z,42.67
2018-05-29T06:17:06.301Z,48.83
2018-05-29T06:19:36.143Z,38.20
2018-05-29T06:22:05.110Z,39.50
2018-05-29T06:24:35.170Z,41.97
2018-05-29T06:27:04.124Z,38.83
2018-05-29T06:29:33.115Z,37.97
2018-05-29T06:32:04.066Z,37.23
2018-05-29T06:34:35.990Z,37.77
2018-05-29T06:37:06.223Z,38.00
2018-05-29T06:39:35.663Z,42.93
2018-05-29T06:42:05.441Z,34.53
2018-05-29T06:44:36.592Z,39.30
2018-05-29T06:47:05.536Z,37.40
2018-05-29T06:49:35.821Z,36.80
2018-05-29T06:52:04.770Z,41.70
2018-05-29T06:54:35.360Z,36.03
2018-05-29T06:57:04.332Z,34.70
2018-05-29T06:59:33.304Z,33.53
2018-05-29T07:02:06.108Z,33.03
2018-05-29T07:04:35.065Z,34.23
2018-05-29T07:07:04.081Z,32.20
2018-05-29T07:09:33.045Z,35.63
2018-05-29T07:12:03.395Z,34.47
2018-05-29T07:14:34.479Z,32.83
2018-05-29T07:17:04.213Z,37.93
2018-05-29T07:19:36.019Z,36.70
2018-05-29T07:22:08.280Z,37.30
2018-05-29T07:24:41.278Z,32.47
2018-05-29T07:27:11.663Z,32.50
2018-05-29T07:29:41.808Z,31.80
2018-05-29T07:32:10.761Z,34.47
2018-05-29T07:34:40.142Z,33.80
2018-05-29T07:37:12.000Z,32.40
2018-05-29T07:39:44.650Z,34.80
2018-05-29T07:42:13.619Z,30.67
2018-05-29T07:44:42.596Z,33.33
2018-05-29T07:47:11.907Z,28.73
2018-05-29T07:49:40.876Z,26.70
2018-05-29T07:52:09.826Z,27.00
2018-05-29T07:54:39.225Z,27.93
2018-05-29T07:57:09.769Z,27.30
2018-05-29T07:59:39.687Z,25.63
2018-05-29T08:02:10.330Z,28.03
2018-05-29T08:04:40.494Z,23.70
2018-05-29T08:07:10.368Z,21.17
2018-05-29T08:09:44.437Z,21.33
2018-05-29T08:12:13.393Z,21.83
2018-05-29T08:14:41.566Z,22.40
2018-05-29T08:17:09.171Z,20.00
2018-05-29T08:19:37.728Z,18.13
2018-05-29T08:22:09.193Z,25.83
2018-05-29T08:24:40.255Z,19.47
2018-05-29T08:27:11.363Z,21.73
2018-05-29T08:29:40.346Z,19.63
2018-05-29T08:32:11.132Z,21.77
2018-05-29T08:34:42.791Z,20.20
2018-05-29T08:37:13.543Z,29.23
2018-05-29T08:39:42.554Z,23.07
2018-05-29T08:42:12.321Z,20.87
2018-05-29T08:44:41.327Z,22.97
2018-05-29T08:47:13.430Z,22.50
2018-05-29T08:49:43.320Z,21.20
2018-05-29T08:52:12.287Z,21.60
2018-05-29T08:54:45.448Z,20.60
2018-05-29T08:57:14.398Z,21.70
2018-05-29T08:59:43.394Z,22.17
2018-05-29T09:02:12.332Z,18.60
2018-05-29T09:04:41.695Z,21.27
2018-05-29T09:07:10.648Z,19.67
2018-05-29T09:09:40.878Z,19.20
2018-05-29T09:12:12.730Z,18.20
2018-05-29T09:14:42.153Z,21.40
2018-05-29T09:17:12.165Z,21.10
2018-05-29T09:19:41.177Z,21.60
2018-05-29T09:22:11.423Z,22.83
2018-05-29T09:24:43.148Z,19.20
2018-05-29T09:27:13.685Z,21.20
2018-05-29T09:29:44.198Z,20.73
2018-05-29T09:32:14.515Z,19.60
2018-05-29T09:34:43.472Z,21.00
2018-05-29T09:37:15.091Z,18.97
2018-05-29T09:39:45.386Z,17.77
2018-05-29T09:42:15.215Z,18.33
2018-05-29T09:44:44.717Z,16.73
2018-05-29T09:47:14.400Z,19.53
2018-05-29T09:49:43.848Z,19.53
2018-05-29T09:52:14.451Z,20.67
2018-05-29T09:54:43.422Z,16.80
2018-05-29T09:57:12.395Z,18.10
2018-05-29T09:59:41.930Z,21.73
2018-05-29T10:02:11.875Z,16.23
2018-05-29T10:04:40.850Z,17.13
2018-05-29T10:07:12.841Z,18.50
2018-05-29T10:09:44.112Z,19.00
2018-05-29T10:12:13.087Z,17.60
2018-05-29T10:14:43.275Z,16.70
2018-05-29T10:17:16.972Z,19.07
2018-05-29T10:19:46.892Z,17.00
2018-05-29T10:22:16.390Z,19.00
2018-05-29T10:24:48.242Z,19.90
2018-05-29T10:27:20.888Z,16.43
2018-05-29T10:29:49.865Z,20.77
2018-05-29T10:32:21.181Z,15.30
2018-05-29T10:34:50.971Z,15.40
2018-05-29T10:37:19.930Z,18.00
2018-05-29T10:39:48.890Z,16.27
2018-05-29T10:42:17.842Z,16.87
2018-05-29T10:44:48.104Z,20.67
2018-05-29T10:47:17.074Z,17.93
2018-05-29T10:49:47.223Z,17.00
2018-05-29T10:52:17.506Z,16.60
2018-05-29T10:54:48.231Z,23.73
2018-05-29T10:57:17.203Z,19.40
2018-05-29T10:59:47.259Z,19.87
2018-05-29T11:02:19.367Z,17.70
2018-05-29T11:04:48.742Z,19.93
2018-05-29T11:07:17.695Z,18.93
2018-05-29T11:09:48.055Z,18.10
2018-05-29T11:12:17.787Z,18.90
2018-05-29T11:14:47.586Z,17.13
2018-05-29T11:17:16.546Z,15.83
2018-05-29T11:19:47.340Z,20.37
2018-05-29T11:22:16.317Z,18.90
2018-05-29T11:24:45.311Z,19.50
2018-05-29T11:27:15.332Z,17.33
2018-05-29T11:29:45.274Z,18.17
2018-05-29T11:32:14.769Z,19.37
2018-05-29T11:34:45.790Z,15.80
2018-05-29T11:37:17.076Z,16.27
2018-05-29T11:39:48.878Z,20.50
2018-05-29T11:42:17.880Z,16.93
2018-05-29T11:44:49.974Z,16.40
2018-05-29T11:47:24.482Z,22.73
2018-05-29T11:49:54.423Z,21.23
2018-05-29T11:52:24.632Z,18.83
2018-05-29T11:54:53.603Z,17.83
2018-05-29T11:57:24.152Z,17.17
2018-05-29T11:59:54.354Z,16.60
2018-05-29T12:02:24.383Z,18.57
2018-05-29T12:04:53.394Z,24.70
2018-05-29T12:07:22.342Z,20.20
2018-05-29T12:09:51.318Z,16.47
2018-05-29T12:12:27.499Z,17.87
2018-05-29T12:14:56.474Z,17.87
2018-05-29T12:17:26.436Z,18.90
2018-05-29T12:19:55.910Z,18.97
2018-05-29T12:22:25.858Z,20.57
2018-05-29T12:24:56.167Z,15.70
2018-05-29T12:27:25.121Z,14.83
2018-05-29T12:29:54.106Z,18.40
2018-05-29T12:32:24.069Z,16.07
2018-05-29T12:34:53.531Z,19.43
2018-05-29T12:37:23.090Z,14.83
2018-05-29T12:39:58.438Z,13.37
2018-05-29T12:42:32.212Z,19.03
2018-05-29T12:45:02.323Z,13.17
2018-05-29T12:47:34.028Z,16.03
2018-05-29T12:50:02.998Z,16.10
2018-05-29T12:52:32.329Z,14.13
2018-05-29T12:55:01.310Z,18.47
2018-05-29T12:57:32.001Z,18.70
2018-05-29T13:00:03.082Z,19.20
2018-05-29T13:02:32.159Z,15.50
2018-05-29T13:05:02.958Z,16.10
2018-05-29T13:07:35.985Z,14.50
2018-05-29T13:10:07.042Z,14.17
2018-05-29T13:12:37.791Z,14.57
2018-05-29T13:15:08.383Z,12.63
2018-05-29T13:17:37.279Z,14.60
2018-05-29T13:20:06.657Z,17.70
2018-05-29T13:22:37.704Z,14.93
2018-05-29T13:25:06.654Z,14.03
2018-05-29T13:27:38.299Z,16.57
2018-05-29T13:30:07.270Z,13.30
2018-05-29T13:32:38.204Z,17.77
2018-05-29T13:35:14.914Z,19.70
2018-05-29T13:37:43.865Z,15.87
2018-05-29T13:40:15.746Z,44.00
2018-05-29T13:42:45.594Z,26.73
2018-05-29T13:45:15.908Z,20.80
2018-05-29T13:47:46.185Z,28.73
2018-05-29T13:50:15.164Z,21.80
2018-05-29T13:52:44.926Z,27.20
2018-05-29T13:55:15.236Z,17.83
2018-05-29T13:57:45.909Z,18.63
2018-05-29T14:00:16.540Z,15.53
2018-05-29T14:02:48.806Z,13.60
2018-05-29T14:05:17.812Z,13.20
2018-05-29T14:07:46.773Z,13.20
2018-05-29T14:10:17.459Z,11.67
2018-05-29T14:12:48.697Z,14.00
2018-05-29T14:15:19.578Z,19.50
2018-05-29T14:17:48.531Z,15.37
2018-05-29T14:20:18.719Z,38.10
2018-05-29T14:22:49.999Z,19.57
2018-05-29T14:25:20.771Z,25.47
2018-05-29T14:27:50.366Z,18.97
2018-05-29T14:30:23.081Z,19.73
2018-05-29T14:32:53.548Z,17.77
2018-05-29T14:35:22.536Z,19.53
2018-05-29T14:37:51.491Z,18.10
2018-05-29T14:40:27.420Z,20.87
2018-05-29T14:42:56.749Z,26.60
2018-05-29T14:45:25.738Z,37.83
2018-05-29T14:47:54.682Z,44.80
2018-05-29T14:50:23.721Z,45.67
2018-05-29T14:52:52.663Z,52.77
2018-05-29T14:55:21.638Z,39.50
2018-05-29T14:57:50.618Z,24.70
2018-05-29T15:00:19.572Z,32.20
2018-05-29T15:02:48.559Z,29.57
2018-05-29T15:05:19.807Z,34.80
2018-05-29T15:07:49.369Z,33.90
2018-05-29T15:10:19.446Z,28.77
2018-05-29T15:12:52.112Z,25.90
2018-05-29T15:15:22.803Z,24.10
2018-05-29T15:17:55.456Z,23.83
2018-05-29T15:20:24.768Z,25.33
2018-05-29T15:22:54.924Z,30.23
2018-05-29T15:25:26.123Z,32.97
2018-05-29T15:27:55.834Z,20.90
2018-05-29T15:30:24.801Z,24.13
2018-05-29T15:32:54.230Z,19.10
2018-05-29T15:35:26.212Z,22.27
2018-05-29T15:37:56.256Z,20.60
2018-05-29T15:40:25.220Z,21.40
2018-05-29T15:42:56.603Z,21.43
2018-05-29T15:45:27.459Z,16.03
2018-05-29T15:47:56.426Z,17.17
2018-05-29T15:50:25.829Z,18.40
2018-05-29T15:52:55.336Z,22.60
2018-05-29T15:55:28.461Z,21.87
2018-05-29T15:57:57.454Z,22.17
2018-05-29T16:00:28.634Z,26.43
2018-05-29T16:02:58.881Z,17.90
2018-05-29T16:05:28.249Z,19.17
2018-05-29T16:08:01.211Z,19.60
2018-05-29T16:10:30.622Z,17.83
2018-05-29T16:12:59.592Z,23.60
2018-05-29T16:15:29.636Z,25.53
2018-05-29T16:17:59.695Z,22.70
2018-05-29T16:20:28.678Z,28.00
2018-05-29T16:22:57.667Z,21.13
2018-05-29T16:25:29.563Z,20.00
2018-05-29T16:27:59.843Z,15.40
2018-05-29T16:30:30.641Z,18.53
2018-05-29T16:32:59.597Z,21.67
2018-05-29T16:35:31.234Z,17.90
2018-05-29T16:38:00.215Z,14.67
2018-05-29T16:40:31.954Z,13.17
2018-05-29T16:43:02.099Z,17.03
2018-05-29T16:45:32.975Z,16.77
2018-05-29T16:48:05.945Z,19.23
2018-05-29T16:50:45.334Z,23.63
2018-05-29T16:53:27.409Z,18.70
2018-05-29T16:56:03.528Z,17.40
2018-05-29T16:58:33.344Z,23.73
2018-05-29T17:01:02.333Z,21.80
2018-05-29T17:03:33.609Z,18.40
2018-05-29T17:06:02.623Z,18.07
2018-05-29T17:08:31.590Z,22.40
2018-05-29T17:11:01.634Z,18.10
2018-05-29T17:13:32.107Z,19.23
2018-05-29T17:16:01.049Z,21.33
2018-05-29T17:18:30.023Z,17.27
2018-05-29T17:21:00.232Z,21.27
2018-05-29T17:23:30.153Z,16.97
2018-05-29T17:26:00.619Z,20.17
2018-05-29T17:28:29.649Z,20.83
2018-05-29T17:31:00.495Z,20.07
2018-05-29T17:33:30.366Z,20.50
2018-05-29T17:36:03.092Z,25.43
2018-05-29T17:38:36.437Z,25.57
2018-05-29T17:41:05.981Z,28.53
2018-05-29T17:43:36.095Z,20.10
2018-05-29T17:46:08.200Z,21.73
2018-05-29T17:48:38.493Z,22.43
2018-05-29T17:51:08.660Z,24.83
2018-05-29T17:53:38.106Z,22.83
2018-05-29T17:56:10.421Z,24.00
2018-05-29T17:58:39.414Z,20.77
2018-05-29T18:01:08.371Z,26.73
2018-05-29T18:03:39.337Z,29.50
2018-05-29T18:06:11.960Z,26.00
2018-05-29T18:08:41.944Z,26.10
2018-05-29T18:11:10.899Z,21.00
2018-05-29T18:13:41.337Z,23.70
2018-05-29T18:16:10.894Z,25.27
2018-05-29T18:18:41.213Z,22.33
2018-05-29T18:21:12.864Z,23.13
2018-05-29T18:23:44.330Z,29.23
2018-05-29T18:26:13.320Z,23.73
2018-05-29T18:28:48.407Z,25.63
2018-05-29T18:31:17.810Z,27.10
2018-05-29T18:33:47.648Z,25.87
2018-05-29T18:36:17.490Z,27.00
2018-05-29T18:38:47.528Z,27.53
2018-05-29T18:41:17.667Z,25.60
2018-05-29T18:43:50.754Z,24.87
2018-05-29T18:46:20.703Z,25.60
2018-05-29T18:48:49.676Z,25.43
2018-05-29T18:51:20.270Z,29.17
2018-05-29T18:53:51.494Z,25.60
2018-05-29T18:56:22.134Z,30.13
2018-05-29T18:58:51.177Z,27.90
2018-05-29T19:01:20.635Z,31.23
2018-05-29T19:03:50.988Z,30.80
2018-05-29T19:06:22.300Z,27.70
2018-05-29T19:08:57.337Z,30.10
2018-05-29T19:11:30.304Z,32.90
2018-05-29T19:14:03.764Z,26.37
2018-05-29T19:16:33.510Z,27.07
2018-05-29T19:19:03.019Z,28.90
2018-05-29T19:21:35.866Z,31.60
2018-05-29T19:24:05.333Z,26.50
2018-05-29T19:26:34.295Z,28.00
2018-05-29T19:29:03.285Z,29.23
2018-05-29T19:31:32.279Z,30.73
2018-05-29T19:34:01.253Z,32.03
2018-05-29T19:36:33.907Z,28.70
2018-05-29T19:39:03.314Z,28.70
2018-05-29T19:41:33.044Z,26.77
2018-05-29T19:44:03.019Z,26.30
2018-05-29T19:46:34.677Z,29.17
2018-05-29T19:49:03.668Z,27.33
2018-05-29T19:51:33.311Z,34.30
2018-05-29T19:54:02.289Z,28.43
2018-05-29T19:56:32.504Z,32.60
2018-05-29T19:59:01.930Z,30.17
2018-05-29T20:01:34.002Z,25.93
2018-05-29T20:04:02.982Z,28.97
2018-05-29T20:06:31.924Z,32.60
2018-05-29T20:09:00.912Z,31.40
2018-05-29T20:11:29.879Z,29.70
2018-05-29T20:14:00.508Z,31.53
2018-05-29T20:16:29.466Z,35.00
2018-05-29T20:18:58.438Z,37.10
2018-05-29T20:21:27.411Z,28.53
2018-05-29T20:23:56.387Z,23.50
2018-05-29T20:26:27.582Z,23.20
2018-05-29T20:29:00.578Z,23.40
2018-05-29T20:31:30.926Z,35.30
2018-05-29T20:34:00.998Z,18.80
2018-05-29T20:36:30.799Z,34.40
2018-05-29T20:38:59.777Z,28.80
2018-05-29T20:41:29.807Z,18.20
2018-05-29T20:43:59.565Z,13.10
2018-05-29T20:46:31.575Z,15.40
2018-05-29T20:49:00.537Z,13.90
2018-05-29T20:51:29.494Z,15.10
2018-05-29T20:53:58.466Z,15.80
2018-05-29T20:56:28.281Z,17.70
2018-05-29T20:58:59.929Z,15.43
2018-05-29T21:01:29.362Z,13.40
2018-05-29T21:03:59.462Z,11.43
2018-05-29T21:06:34.281Z,14.53
2018-05-29T21:09:06.745Z,11.97
2018-05-29T21:11:35.713Z,12.17
2018-05-29T21:14:08.744Z,12.63
2018-05-29T21:16:40.905Z,17.60
2018-05-29T21:19:10.718Z,16.80
2018-05-29T21:21:40.546Z,14.20
2018-05-29T21:24:10.626Z,11.60
2018-05-29T21:26:41.623Z,13.90
2018-05-29T21:29:10.993Z,18.80
2018-05-29T21:31:40.408Z,16.63
2018-05-29T21:34:11.146Z,21.80
2018-05-29T21:36:40.087Z,18.27
2018-05-29T21:39:09.062Z,15.20
2018-05-29T21:41:38.067Z,14.60
2018-05-29T21:44:11.299Z,17.77
2018-05-29T21:46:41.967Z,17.40
2018-05-29T21:49:14.346Z,14.10
2018-05-29T21:51:45.636Z,13.93
2018-05-29T21:54:15.806Z,15.43
2018-05-29T21:56:47.429Z,23.23
2018-05-29T21:59:18.712Z,17.13
2018-05-29T22:01:47.697Z,21.63
2018-05-29T22:04:17.979Z,23.13
2018-05-29T22:06:48.266Z,21.60
2018-05-29T22:09:17.658Z,23.20
2018-05-29T22:11:47.536Z,24.30
2018-05-29T22:14:17.352Z,38.13
2018-05-29T22:16:48.110Z,26.27
2018-05-29T22:19:17.529Z,30.23
2018-05-29T22:21:46.511Z,26.43
2018-05-29T22:24:16.615Z,27.13
2018-05-29T22:26:45.577Z,30.50
2018-05-29T22:29:14.578Z,24.40
2018-05-29T22:31:44.715Z,26.07
2018-05-29T22:34:15.923Z,26.20
2018-05-29T22:36:45.346Z,26.43
2018-05-29T22:39:14.789Z,24.10
2018-05-29T22:41:46.539Z,30.83
2018-05-29T22:44:15.501Z,24.40
2018-05-29T22:46:45.445Z,27.17
2018-05-29T22:49:14.405Z,29.87
2018-05-29T22:51:48.875Z,28.70
2018-05-29T22:54:19.032Z,28.27
2018-05-29T22:56:51.382Z,24.57
2018-05-29T22:59:20.348Z,28.30
2018-05-29T23:01:50.450Z,23.53
2018-05-29T23:04:19.438Z,23.30
2018-05-29T23:06:50.508Z,29.43
2018-05-29T23:09:20.463Z,28.10
2018-05-29T23:11:50.790Z,21.70
2018-05-29T23:14:20.484Z,21.67
2018-05-29T23:16:50.464Z,24.87
2018-05-29T23:19:19.450Z,25.20
2018-05-29T23:21:48.414Z,26.17
2018-05-29T23:24:20.213Z,23.33
2018-05-29T23:26:52.959Z,23.30
2018-05-29T23:29:24.254Z,23.17
2018-05-29T23:31:54.557Z,23.70
2018-05-29T23:34:24.891Z,20.13
2018-05-29T23:36:53.843Z,31.17
2018-05-29T23:39:23.326Z,27.77
2018-05-29T23:41:53.664Z,25.90
2018-05-29T23:44:22.677Z,22.03
2018-05-29T23:46:51.625Z,25.27
2018-05-29T23:49:21.202Z,23.33
2018-05-29T23:51:51.963Z,21.07
2018-05-29T23:54:22.926Z,21.53
2018-05-29T23:56:53.162Z,24.50
2018-05-29T23:59:22.199Z,20.47
